sensor_id;sensor_type;location;lat;lon;timestamp;temperature;humidity
25352;DHT22;13304;48.464;8.712;2022-08-18T00:01:48;21.50;79.30
25352;DHT22;13304;48.464;8.712;2022-08-18T00:04:14;21.50;79.40
25352;DHT22;13304;48.464;8.712;2022-08-18T00:06:40;21.50;79.40
25352;DHT22;13304;48.464;8.712;2022-08-18T00:09:08;21.50;79.20
25352;DHT22;13304;48.464;8.712;2022-08-18T00:11:38;21.50;79.40
25352;DHT22;13304;48.464;8.712;2022-08-18T00:14:05;21.50;79.40
25352;DHT22;13304;48.464;8.712;2022-08-18T00:16:31;21.50;79.20
25352;DHT22;13304;48.464;8.712;2022-08-18T00:18:57;21.50;79.10
25352;DHT22;13304;48.464;8.712;2022-08-18T00:21:24;21.50;79.10
25352;DHT22;13304;48.464;8.712;2022-08-18T00:23:49;21.50;79.20
25352;DHT22;13304;48.464;8.712;2022-08-18T00:26:15;21.60;79.10
25352;DHT22;13304;48.464;8.712;2022-08-18T00:28:41;21.60;79.00
25352;DHT22;13304;48.464;8.712;2022-08-18T00:31:07;21.60;79.70
25352;DHT22;13304;48.464;8.712;2022-08-18T00:33:32;21.60;78.80
25352;DHT22;13304;48.464;8.712;2022-08-18T00:36:01;21.60;78.80
25352;DHT22;13304;48.464;8.712;2022-08-18T00:38:27;21.60;78.60
25352;DHT22;13304;48.464;8.712;2022-08-18T00:40:54;21.70;78.50
25352;DHT22;13304;48.464;8.712;2022-08-18T00:45:57;21.70;78.70
25352;DHT22;13304;48.464;8.712;2022-08-18T00:48:23;21.70;78.40
25352;DHT22;13304;48.464;8.712;2022-08-18T00:50:57;21.70;79.20
25352;DHT22;13304;48.464;8.712;2022-08-18T00:53:30;21.70;78.70
25352;DHT22;13304;48.464;8.712;2022-08-18T00:56:07;21.70;78.70
25352;DHT22;13304;48.464;8.712;2022-08-18T00:58:38;21.70;78.60
25352;DHT22;13304;48.464;8.712;2022-08-18T01:01:07;21.70;78.50
25352;DHT22;13304;48.464;8.712;2022-08-18T01:03:35;21.70;78.40
25352;DHT22;13304;48.464;8.712;2022-08-18T01:06:29;21.70;78.30
25352;DHT22;13304;48.464;8.712;2022-08-18T01:08:57;21.70;78.70
25352;DHT22;13304;48.464;8.712;2022-08-18T01:11:23;21.70;78.50
25352;DHT22;13304;48.464;8.712;2022-08-18T01:13:49;21.70;78.40
25352;DHT22;13304;48.464;8.712;2022-08-18T01:16:18;21.70;78.30
25352;DHT22;13304;48.464;8.712;2022-08-18T01:19:02;21.70;78.50
25352;DHT22;13304;48.464;8.712;2022-08-18T01:21:51;21.70;78.70
25352;DHT22;13304;48.464;8.712;2022-08-18T01:24:23;21.60;78.60
25352;DHT22;13304;48.464;8.712;2022-08-18T01:27:13;21.60;78.60
25352;DHT22;13304;48.464;8.712;2022-08-18T01:29:46;21.60;78.60
25352;DHT22;13304;48.464;8.712;2022-08-18T01:32:18;21.60;78.60
25352;DHT22;13304;48.464;8.712;2022-08-18T01:34:45;21.60;79.00
25352;DHT22;13304;48.464;8.712;2022-08-18T01:37:14;21.60;78.70
25352;DHT22;13304;48.464;8.712;2022-08-18T01:39:41;21.60;78.80
25352;DHT22;13304;48.464;8.712;2022-08-18T01:42:08;21.60;78.80
25352;DHT22;13304;48.464;8.712;2022-08-18T01:44:34;21.60;78.70
25352;DHT22;13304;48.464;8.712;2022-08-18T01:47:00;21.60;78.80
25352;DHT22;13304;48.464;8.712;2022-08-18T01:49:26;21.60;79.00
25352;DHT22;13304;48.464;8.712;2022-08-18T01:51:53;21.60;79.00
25352;DHT22;13304;48.464;8.712;2022-08-18T01:54:20;21.60;78.90
25352;DHT22;13304;48.464;8.712;2022-08-18T01:56:46;21.60;78.70
25352;DHT22;13304;48.464;8.712;2022-08-18T01:59:17;21.60;78.70
25352;DHT22;13304;48.464;8.712;2022-08-18T02:01:46;21.60;78.60
25352;DHT22;13304;48.464;8.712;2022-08-18T02:04:15;21.60;78.70
25352;DHT22;13304;48.464;8.712;2022-08-18T02:06:41;21.60;78.80
25352;DHT22;13304;48.464;8.712;2022-08-18T02:09:07;21.60;78.60
25352;DHT22;13304;48.464;8.712;2022-08-18T02:11:33;21.60;78.50
25352;DHT22;13304;48.464;8.712;2022-08-18T02:14:02;21.60;78.60
25352;DHT22;13304;48.464;8.712;2022-08-18T02:16:28;21.60;78.70
25352;DHT22;13304;48.464;8.712;2022-08-18T02:18:54;21.50;78.90
25352;DHT22;13304;48.464;8.712;2022-08-18T02:21:20;21.50;78.80
25352;DHT22;13304;48.464;8.712;2022-08-18T02:23:47;21.50;78.90
25352;DHT22;13304;48.464;8.712;2022-08-18T02:26:14;21.50;79.10
25352;DHT22;13304;48.464;8.712;2022-08-18T02:28:41;21.40;79.20
25352;DHT22;13304;48.464;8.712;2022-08-18T02:31:12;21.40;79.40
25352;DHT22;13304;48.464;8.712;2022-08-18T02:33:38;21.40;79.50
25352;DHT22;13304;48.464;8.712;2022-08-18T02:36:05;21.40;79.70
25352;DHT22;13304;48.464;8.712;2022-08-18T02:38:32;21.40;79.50
25352;DHT22;13304;48.464;8.712;2022-08-18T02:41:00;21.40;79.70
25352;DHT22;13304;48.464;8.712;2022-08-18T02:43:27;21.30;79.70
25352;DHT22;13304;48.464;8.712;2022-08-18T02:45:53;21.30;79.80
25352;DHT22;13304;48.464;8.712;2022-08-18T02:48:19;21.30;79.70
25352;DHT22;13304;48.464;8.712;2022-08-18T02:51:23;21.30;79.60
25352;DHT22;13304;48.464;8.712;2022-08-18T02:53:48;21.30;79.80
25352;DHT22;13304;48.464;8.712;2022-08-18T02:56:19;21.30;79.80
25352;DHT22;13304;48.464;8.712;2022-08-18T02:59:00;21.30;80.10
25352;DHT22;13304;48.464;8.712;2022-08-18T03:01:29;21.30;80.10
25352;DHT22;13304;48.464;8.712;2022-08-18T03:03:56;21.30;80.10
25352;DHT22;13304;48.464;8.712;2022-08-18T03:06:23;21.30;80.00
25352;DHT22;13304;48.464;8.712;2022-08-18T03:08:49;21.30;80.00
25352;DHT22;13304;48.464;8.712;2022-08-18T03:11:22;21.40;80.00
25352;DHT22;13304;48.464;8.712;2022-08-18T03:13:48;21.30;80.00
25352;DHT22;13304;48.464;8.712;2022-08-18T03:16:15;21.30;79.80
25352;DHT22;13304;48.464;8.712;2022-08-18T03:18:42;21.30;79.80
25352;DHT22;13304;48.464;8.712;2022-08-18T03:21:11;21.40;80.00
25352;DHT22;13304;48.464;8.712;2022-08-18T03:23:46;21.40;80.10
25352;DHT22;13304;48.464;8.712;2022-08-18T03:26:14;21.30;80.00
25352;DHT22;13304;48.464;8.712;2022-08-18T03:28:42;21.40;80.10
25352;DHT22;13304;48.464;8.712;2022-08-18T03:31:09;21.40;80.20
25352;DHT22;13304;48.464;8.712;2022-08-18T03:33:36;21.40;80.30
25352;DHT22;13304;48.464;8.712;2022-08-18T03:36:16;21.40;80.50
25352;DHT22;13304;48.464;8.712;2022-08-18T03:38:46;21.40;80.70
25352;DHT22;13304;48.464;8.712;2022-08-18T03:41:16;21.40;80.60
25352;DHT22;13304;48.464;8.712;2022-08-18T03:43:49;21.40;80.60
25352;DHT22;13304;48.464;8.712;2022-08-18T03:46:17;21.40;80.80
25352;DHT22;13304;48.464;8.712;2022-08-18T03:48:49;21.50;81.20
25352;DHT22;13304;48.464;8.712;2022-08-18T03:51:21;21.40;80.00
25352;DHT22;13304;48.464;8.712;2022-08-18T03:53:48;21.40;80.20
25352;DHT22;13304;48.464;8.712;2022-08-18T03:56:20;21.50;80.20
25352;DHT22;13304;48.464;8.712;2022-08-18T03:58:48;21.40;80.10
25352;DHT22;13304;48.464;8.712;2022-08-18T04:01:16;21.40;80.20
25352;DHT22;13304;48.464;8.712;2022-08-18T04:03:48;21.40;80.20
25352;DHT22;13304;48.464;8.712;2022-08-18T04:06:24;21.40;80.20
25352;DHT22;13304;48.464;8.712;2022-08-18T04:08:53;21.40;80.20
25352;DHT22;13304;48.464;8.712;2022-08-18T04:11:19;21.40;80.20
25352;DHT22;13304;48.464;8.712;2022-08-18T04:13:45;21.40;80.10
25352;DHT22;13304;48.464;8.712;2022-08-18T04:16:11;21.40;80.00
25352;DHT22;13304;48.464;8.712;2022-08-18T04:18:37;21.40;80.10
25352;DHT22;13304;48.464;8.712;2022-08-18T04:21:05;21.40;80.20
25352;DHT22;13304;48.464;8.712;2022-08-18T04:23:38;21.40;80.10
25352;DHT22;13304;48.464;8.712;2022-08-18T04:26:05;21.40;80.00
25352;DHT22;13304;48.464;8.712;2022-08-18T04:28:33;21.40;80.00
25352;DHT22;13304;48.464;8.712;2022-08-18T04:31:08;21.40;80.00
25352;DHT22;13304;48.464;8.712;2022-08-18T04:33:35;21.40;80.10
25352;DHT22;13304;48.464;8.712;2022-08-18T04:36:10;21.40;80.10
25352;DHT22;13304;48.464;8.712;2022-08-18T04:38:37;21.40;80.40
25352;DHT22;13304;48.464;8.712;2022-08-18T04:41:03;21.40;80.30
25352;DHT22;13304;48.464;8.712;2022-08-18T04:43:30;21.40;80.30
25352;DHT22;13304;48.464;8.712;2022-08-18T04:45:56;21.40;80.60
25352;DHT22;13304;48.464;8.712;2022-08-18T04:48:35;21.40;80.50
25352;DHT22;13304;48.464;8.712;2022-08-18T04:51:14;21.40;80.60
25352;DHT22;13304;48.464;8.712;2022-08-18T04:53:41;21.30;80.90
25352;DHT22;13304;48.464;8.712;2022-08-18T04:58:40;21.40;81.00
25352;DHT22;13304;48.464;8.712;2022-08-18T05:01:05;21.40;80.90
25352;DHT22;13304;48.464;8.712;2022-08-18T05:03:31;21.40;80.90
25352;DHT22;13304;48.464;8.712;2022-08-18T05:06:03;21.30;81.00
25352;DHT22;13304;48.464;8.712;2022-08-18T05:08:29;21.30;81.10
25352;DHT22;13304;48.464;8.712;2022-08-18T05:10:55;21.30;80.90
25352;DHT22;13304;48.464;8.712;2022-08-18T05:13:24;21.30;80.90
25352;DHT22;13304;48.464;8.712;2022-08-18T05:15:58;21.40;81.00
25352;DHT22;13304;48.464;8.712;2022-08-18T05:18:32;21.30;81.20
25352;DHT22;13304;48.464;8.712;2022-08-18T05:20:58;21.30;81.10
25352;DHT22;13304;48.464;8.712;2022-08-18T05:23:26;21.40;81.00
25352;DHT22;13304;48.464;8.712;2022-08-18T05:26:02;21.30;80.90
25352;DHT22;13304;48.464;8.712;2022-08-18T05:28:29;21.30;81.10
25352;DHT22;13304;48.464;8.712;2022-08-18T05:30:55;21.40;80.90
25352;DHT22;13304;48.464;8.712;2022-08-18T05:33:23;21.40;81.10
25352;DHT22;13304;48.464;8.712;2022-08-18T05:35:52;21.40;81.10
25352;DHT22;13304;48.464;8.712;2022-08-18T05:41:19;21.40;81.30
25352;DHT22;13304;48.464;8.712;2022-08-18T05:43:47;21.40;81.40
25352;DHT22;13304;48.464;8.712;2022-08-18T05:46:14;21.40;81.20
25352;DHT22;13304;48.464;8.712;2022-08-18T05:48:40;21.50;81.20
25352;DHT22;13304;48.464;8.712;2022-08-18T05:51:13;21.50;81.10
25352;DHT22;13304;48.464;8.712;2022-08-18T05:53:43;21.50;81.30
25352;DHT22;13304;48.464;8.712;2022-08-18T05:56:31;21.50;81.40
25352;DHT22;13304;48.464;8.712;2022-08-18T05:59:19;21.60;81.40
25352;DHT22;13304;48.464;8.712;2022-08-18T06:01:57;21.60;81.40
25352;DHT22;13304;48.464;8.712;2022-08-18T06:04:49;21.60;81.70
25352;DHT22;13304;48.464;8.712;2022-08-18T06:07:35;21.60;81.70
25352;DHT22;13304;48.464;8.712;2022-08-18T06:10:02;21.60;81.60
25352;DHT22;13304;48.464;8.712;2022-08-18T06:12:35;21.70;81.50
25352;DHT22;13304;48.464;8.712;2022-08-18T06:17:55;21.70;81.70
25352;DHT22;13304;48.464;8.712;2022-08-18T06:20:51;21.70;81.70
25352;DHT22;13304;48.464;8.712;2022-08-18T06:23:45;21.70;81.50
25352;DHT22;13304;48.464;8.712;2022-08-18T06:39:53;21.90;81.70
25352;DHT22;13304;48.464;8.712;2022-08-18T06:42:24;22.00;81.60
25352;DHT22;13304;48.464;8.712;2022-08-18T06:45:08;22.00;81.30
25352;DHT22;13304;48.464;8.712;2022-08-18T06:47:51;22.00;80.90
25352;DHT22;13304;48.464;8.712;2022-08-18T06:50:29;22.00;80.80
25352;DHT22;13304;48.464;8.712;2022-08-18T06:53:00;22.00;80.60
25352;DHT22;13304;48.464;8.712;2022-08-18T06:55:40;22.10;80.20
25352;DHT22;13304;48.464;8.712;2022-08-18T06:58:28;22.10;80.30
25352;DHT22;13304;48.464;8.712;2022-08-18T07:01:00;22.00;80.20
25352;DHT22;13304;48.464;8.712;2022-08-18T07:06:24;22.00;79.90
25352;DHT22;13304;48.464;8.712;2022-08-18T07:08:53;22.00;79.90
25352;DHT22;13304;48.464;8.712;2022-08-18T07:11:22;22.00;79.90
25352;DHT22;13304;48.464;8.712;2022-08-18T07:13:54;22.00;80.00
25352;DHT22;13304;48.464;8.712;2022-08-18T07:18:52;21.90;80.60
25352;DHT22;13304;48.464;8.712;2022-08-18T07:21:26;22.00;80.60
25352;DHT22;13304;48.464;8.712;2022-08-18T07:24:03;21.90;80.60
25352;DHT22;13304;48.464;8.712;2022-08-18T07:26:29;21.90;81.10
25352;DHT22;13304;48.464;8.712;2022-08-18T07:29:12;21.90;81.10
25352;DHT22;13304;48.464;8.712;2022-08-18T07:31:48;22.00;81.30
25352;DHT22;13304;48.464;8.712;2022-08-18T07:34:34;22.00;81.60
25352;DHT22;13304;48.464;8.712;2022-08-18T07:37:13;22.00;82.10
25352;DHT22;13304;48.464;8.712;2022-08-18T07:39:55;22.10;81.70
25352;DHT22;13304;48.464;8.712;2022-08-18T07:45:04;22.20;81.40
25352;DHT22;13304;48.464;8.712;2022-08-18T07:47:41;22.30;81.30
25352;DHT22;13304;48.464;8.712;2022-08-18T07:50:10;22.30;81.10
25352;DHT22;13304;48.464;8.712;2022-08-18T07:52:45;22.40;81.00
25352;DHT22;13304;48.464;8.712;2022-08-18T07:55:20;22.40;80.50
25352;DHT22;13304;48.464;8.712;2022-08-18T08:00:41;22.40;79.90
25352;DHT22;13304;48.464;8.712;2022-08-18T08:06:06;22.50;79.20
25352;DHT22;13304;48.464;8.712;2022-08-18T08:16:49;22.60;79.00
25352;DHT22;13304;48.464;8.712;2022-08-18T08:25:18;22.70;79.00
25352;DHT22;13304;48.464;8.712;2022-08-18T08:28:05;22.70;79.50
25352;DHT22;13304;48.464;8.712;2022-08-18T08:33:47;22.70;79.00
25352;DHT22;13304;48.464;8.712;2022-08-18T08:36:27;22.70;78.70
25352;DHT22;13304;48.464;8.712;2022-08-18T08:38:58;22.80;78.50
25352;DHT22;13304;48.464;8.712;2022-08-18T08:41:47;22.80;78.20
25352;DHT22;13304;48.464;8.712;2022-08-18T08:44:28;22.80;78.00
25352;DHT22;13304;48.464;8.712;2022-08-18T08:47:07;22.80;77.60
25352;DHT22;13304;48.464;8.712;2022-08-18T08:49:45;22.80;77.00
25352;DHT22;13304;48.464;8.712;2022-08-18T08:52:29;22.80;77.10
25352;DHT22;13304;48.464;8.712;2022-08-18T08:57:34;22.80;77.90
25352;DHT22;13304;48.464;8.712;2022-08-18T09:00:08;22.90;77.60
25352;DHT22;13304;48.464;8.712;2022-08-18T09:05:37;22.90;79.10
25352;DHT22;13304;48.464;8.712;2022-08-18T09:16:51;23.20;78.10
25352;DHT22;13304;48.464;8.712;2022-08-18T09:19:25;23.30;79.10
25352;DHT22;13304;48.464;8.712;2022-08-18T09:24:49;23.40;78.00
25352;DHT22;13304;48.464;8.712;2022-08-18T09:27:34;23.50;78.30
25352;DHT22;13304;48.464;8.712;2022-08-18T09:30:04;23.70;77.20
25352;DHT22;13304;48.464;8.712;2022-08-18T09:38:25;24.00;76.60
25352;DHT22;13304;48.464;8.712;2022-08-18T09:41:19;24.10;76.00
25352;DHT22;13304;48.464;8.712;2022-08-18T09:44:05;24.10;75.70
25352;DHT22;13304;48.464;8.712;2022-08-18T09:52:00;24.40;75.10
25352;DHT22;13304;48.464;8.712;2022-08-18T09:54:28;24.50;75.00
25352;DHT22;13304;48.464;8.712;2022-08-18T10:10:40;24.80;72.30
25352;DHT22;13304;48.464;8.712;2022-08-18T10:13:35;24.80;71.60
25352;DHT22;13304;48.464;8.712;2022-08-18T10:19:50;24.90;70.90
25352;DHT22;13304;48.464;8.712;2022-08-18T10:22:42;24.90;70.70
25352;DHT22;13304;48.464;8.712;2022-08-18T10:25:09;24.90;71.30
25352;DHT22;13304;48.464;8.712;2022-08-18T10:30:44;25.00;72.00
25352;DHT22;13304;48.464;8.712;2022-08-18T10:33:11;25.10;71.50
25352;DHT22;13304;48.464;8.712;2022-08-18T10:35:58;25.30;71.60
25352;DHT22;13304;48.464;8.712;2022-08-18T10:38:37;25.40;71.10
25352;DHT22;13304;48.464;8.712;2022-08-18T10:41:04;25.50;70.20
25352;DHT22;13304;48.464;8.712;2022-08-18T10:43:36;25.40;67.70
25352;DHT22;13304;48.464;8.712;2022-08-18T10:46:02;25.60;69.00
25352;DHT22;13304;48.464;8.712;2022-08-18T10:48:33;25.70;69.10
25352;DHT22;13304;48.464;8.712;2022-08-18T10:51:31;25.70;68.20
25352;DHT22;13304;48.464;8.712;2022-08-18T10:54:19;25.70;65.20
25352;DHT22;13304;48.464;8.712;2022-08-18T10:57:07;25.70;66.70
25352;DHT22;13304;48.464;8.712;2022-08-18T10:59:58;25.70;66.30
25352;DHT22;13304;48.464;8.712;2022-08-18T11:02:47;25.70;65.40
25352;DHT22;13304;48.464;8.712;2022-08-18T11:05:21;25.70;64.50
25352;DHT22;13304;48.464;8.712;2022-08-18T11:07:49;25.70;64.90
25352;DHT22;13304;48.464;8.712;2022-08-18T11:10:21;25.70;65.00
25352;DHT22;13304;48.464;8.712;2022-08-18T11:13:01;25.70;65.20
25352;DHT22;13304;48.464;8.712;2022-08-18T11:18:36;25.70;65.50
25352;DHT22;13304;48.464;8.712;2022-08-18T11:24:27;25.60;64.50
25352;DHT22;13304;48.464;8.712;2022-08-18T11:26:59;25.70;65.60
25352;DHT22;13304;48.464;8.712;2022-08-18T11:32:08;25.90;66.20
25352;DHT22;13304;48.464;8.712;2022-08-18T11:34:44;25.90;65.80
25352;DHT22;13304;48.464;8.712;2022-08-18T11:37:26;26.00;65.00
25352;DHT22;13304;48.464;8.712;2022-08-18T11:39:56;26.10;63.90
25352;DHT22;13304;48.464;8.712;2022-08-18T11:42:28;26.20;63.30
25352;DHT22;13304;48.464;8.712;2022-08-18T11:45:23;26.20;62.70
25352;DHT22;13304;48.464;8.712;2022-08-18T11:56:32;26.30;61.10
25352;DHT22;13304;48.464;8.712;2022-08-18T11:59:06;26.30;61.60
25352;DHT22;13304;48.464;8.712;2022-08-18T12:01:38;26.40;62.00
25352;DHT22;13304;48.464;8.712;2022-08-18T12:06:34;26.40;62.20
25352;DHT22;13304;48.464;8.712;2022-08-18T12:11:34;26.40;63.40
25352;DHT22;13304;48.464;8.712;2022-08-18T12:14:11;26.40;63.50
25352;DHT22;13304;48.464;8.712;2022-08-18T12:16:42;26.40;63.40
25352;DHT22;13304;48.464;8.712;2022-08-18T12:19:11;26.40;63.70
25352;DHT22;13304;48.464;8.712;2022-08-18T12:21:42;26.40;63.70
25352;DHT22;13304;48.464;8.712;2022-08-18T12:24:18;26.40;64.10
25352;DHT22;13304;48.464;8.712;2022-08-18T12:26:45;26.40;63.80
25352;DHT22;13304;48.464;8.712;2022-08-18T12:29:12;26.50;64.00
25352;DHT22;13304;48.464;8.712;2022-08-18T12:31:38;26.40;63.60
25352;DHT22;13304;48.464;8.712;2022-08-18T12:34:04;26.40;64.00
25352;DHT22;13304;48.464;8.712;2022-08-18T12:36:31;26.40;63.60
25352;DHT22;13304;48.464;8.712;2022-08-18T12:38:57;26.40;63.70
25352;DHT22;13304;48.464;8.712;2022-08-18T12:41:23;26.40;63.70
25352;DHT22;13304;48.464;8.712;2022-08-18T12:43:48;26.40;63.20
25352;DHT22;13304;48.464;8.712;2022-08-18T12:46:14;26.30;62.80
25352;DHT22;13304;48.464;8.712;2022-08-18T12:48:40;26.30;62.70
25352;DHT22;13304;48.464;8.712;2022-08-18T12:51:08;26.30;62.50
25352;DHT22;13304;48.464;8.712;2022-08-18T12:53:35;26.30;62.50
25352;DHT22;13304;48.464;8.712;2022-08-18T12:56:01;26.20;62.60
25352;DHT22;13304;48.464;8.712;2022-08-18T12:58:27;26.20;62.60
25352;DHT22;13304;48.464;8.712;2022-08-18T13:00:53;26.10;62.50
25352;DHT22;13304;48.464;8.712;2022-08-18T13:03:19;26.10;62.20
25352;DHT22;13304;48.464;8.712;2022-08-18T13:05:46;26.10;62.00
25352;DHT22;13304;48.464;8.712;2022-08-18T13:08:17;26.10;62.00
25352;DHT22;13304;48.464;8.712;2022-08-18T13:10:43;26.10;62.10
25352;DHT22;13304;48.464;8.712;2022-08-18T13:13:09;26.10;62.50
25352;DHT22;13304;48.464;8.712;2022-08-18T13:15:35;26.10;62.20
25352;DHT22;13304;48.464;8.712;2022-08-18T13:18:01;26.10;62.20
25352;DHT22;13304;48.464;8.712;2022-08-18T13:20:28;26.10;61.80
25352;DHT22;13304;48.464;8.712;2022-08-18T13:22:54;26.10;61.40
25352;DHT22;13304;48.464;8.712;2022-08-18T13:25:20;26.10;61.30
25352;DHT22;13304;48.464;8.712;2022-08-18T13:27:45;26.00;61.00
25352;DHT22;13304;48.464;8.712;2022-08-18T13:30:15;26.00;61.40
25352;DHT22;13304;48.464;8.712;2022-08-18T13:32:41;26.00;61.20
25352;DHT22;13304;48.464;8.712;2022-08-18T13:35:07;26.00;61.50
25352;DHT22;13304;48.464;8.712;2022-08-18T13:37:33;26.10;61.40
25352;DHT22;13304;48.464;8.712;2022-08-18T13:40:00;26.10;61.10
25352;DHT22;13304;48.464;8.712;2022-08-18T13:42:26;26.10;61.50
25352;DHT22;13304;48.464;8.712;2022-08-18T13:44:54;26.20;61.30
25352;DHT22;13304;48.464;8.712;2022-08-18T13:47:22;26.20;60.70
25352;DHT22;13304;48.464;8.712;2022-08-18T13:49:48;26.20;61.20
25352;DHT22;13304;48.464;8.712;2022-08-18T13:52:14;26.20;60.90
25352;DHT22;13304;48.464;8.712;2022-08-18T13:54:40;26.30;61.10
25352;DHT22;13304;48.464;8.712;2022-08-18T13:57:06;26.30;61.40
25352;DHT22;13304;48.464;8.712;2022-08-18T13:59:32;26.40;60.70
25352;DHT22;13304;48.464;8.712;2022-08-18T14:02:02;26.40;60.40
25352;DHT22;13304;48.464;8.712;2022-08-18T14:04:30;26.40;60.20
25352;DHT22;13304;48.464;8.712;2022-08-18T14:06:56;26.50;60.20
25352;DHT22;13304;48.464;8.712;2022-08-18T14:09:22;26.40;59.90
25352;DHT22;13304;48.464;8.712;2022-08-18T14:11:48;26.50;59.40
25352;DHT22;13304;48.464;8.712;2022-08-18T14:14:14;26.50;59.40
25352;DHT22;13304;48.464;8.712;2022-08-18T14:16:40;26.50;58.80
25352;DHT22;13304;48.464;8.712;2022-08-18T14:19:06;26.50;58.70
25352;DHT22;13304;48.464;8.712;2022-08-18T14:21:51;26.50;58.60
25352;DHT22;13304;48.464;8.712;2022-08-18T14:24:37;26.50;58.60
25352;DHT22;13304;48.464;8.712;2022-08-18T14:27:30;26.50;58.30
25352;DHT22;13304;48.464;8.712;2022-08-18T14:29:59;26.50;58.00
25352;DHT22;13304;48.464;8.712;2022-08-18T14:32:26;26.60;58.40
25352;DHT22;13304;48.464;8.712;2022-08-18T14:35:00;26.60;58.60
25352;DHT22;13304;48.464;8.712;2022-08-18T14:37:26;26.60;58.30
25352;DHT22;13304;48.464;8.712;2022-08-18T14:39:52;26.60;58.10
25352;DHT22;13304;48.464;8.712;2022-08-18T14:42:19;26.70;57.90
25352;DHT22;13304;48.464;8.712;2022-08-18T14:44:46;26.70;57.50
25352;DHT22;13304;48.464;8.712;2022-08-18T14:47:12;26.80;57.00
25352;DHT22;13304;48.464;8.712;2022-08-18T14:49:38;26.80;56.60
25352;DHT22;13304;48.464;8.712;2022-08-18T14:52:05;26.70;56.40
25352;DHT22;13304;48.464;8.712;2022-08-18T14:54:31;26.70;56.60
25352;DHT22;13304;48.464;8.712;2022-08-18T14:56:59;26.70;56.50
25352;DHT22;13304;48.464;8.712;2022-08-18T14:59:27;26.70;56.40
25352;DHT22;13304;48.464;8.712;2022-08-18T15:01:56;26.60;56.30
25352;DHT22;13304;48.464;8.712;2022-08-18T15:04:22;26.60;56.00
25352;DHT22;13304;48.464;8.712;2022-08-18T15:06:49;26.60;56.00
25352;DHT22;13304;48.464;8.712;2022-08-18T15:09:15;26.50;55.90
25352;DHT22;13304;48.464;8.712;2022-08-18T15:11:41;26.50;55.80
25352;DHT22;13304;48.464;8.712;2022-08-18T15:14:07;26.40;56.20
25352;DHT22;13304;48.464;8.712;2022-08-18T15:16:35;26.40;56.30
25352;DHT22;13304;48.464;8.712;2022-08-18T15:19:02;26.40;56.60
25352;DHT22;13304;48.464;8.712;2022-08-18T15:21:29;26.40;56.70
25352;DHT22;13304;48.464;8.712;2022-08-18T15:24:15;26.50;56.70
25352;DHT22;13304;48.464;8.712;2022-08-18T15:26:59;26.50;56.40
25352;DHT22;13304;48.464;8.712;2022-08-18T15:29:25;26.60;56.40
25352;DHT22;13304;48.464;8.712;2022-08-18T15:31:51;26.60;56.20
25352;DHT22;13304;48.464;8.712;2022-08-18T15:34:17;26.60;56.10
25352;DHT22;13304;48.464;8.712;2022-08-18T15:36:43;26.60;56.10
25352;DHT22;13304;48.464;8.712;2022-08-18T15:39:09;26.70;55.70
25352;DHT22;13304;48.464;8.712;2022-08-18T15:41:41;26.70;55.70
25352;DHT22;13304;48.464;8.712;2022-08-18T15:44:14;26.70;55.50
25352;DHT22;13304;48.464;8.712;2022-08-18T15:46:41;26.80;55.10
25352;DHT22;13304;48.464;8.712;2022-08-18T15:49:07;26.80;55.20
25352;DHT22;13304;48.464;8.712;2022-08-18T15:51:34;26.90;55.50
25352;DHT22;13304;48.464;8.712;2022-08-18T15:54:01;26.90;55.40
25352;DHT22;13304;48.464;8.712;2022-08-18T15:56:28;27.00;55.70
25352;DHT22;13304;48.464;8.712;2022-08-18T15:58:54;27.10;55.60
25352;DHT22;13304;48.464;8.712;2022-08-18T16:01:21;27.10;55.70
25352;DHT22;13304;48.464;8.712;2022-08-18T16:03:48;27.10;55.80
25352;DHT22;13304;48.464;8.712;2022-08-18T16:06:18;27.20;55.70
25352;DHT22;13304;48.464;8.712;2022-08-18T16:08:44;27.20;55.80
25352;DHT22;13304;48.464;8.712;2022-08-18T16:11:14;27.20;55.80
25352;DHT22;13304;48.464;8.712;2022-08-18T16:13:40;27.20;55.80
25352;DHT22;13304;48.464;8.712;2022-08-18T16:16:16;27.20;56.00
25352;DHT22;13304;48.464;8.712;2022-08-18T16:18:42;27.10;56.10
25352;DHT22;13304;48.464;8.712;2022-08-18T16:21:15;27.10;56.10
25352;DHT22;13304;48.464;8.712;2022-08-18T16:23:43;27.00;56.30
25352;DHT22;13304;48.464;8.712;2022-08-18T16:26:10;27.00;56.50
25352;DHT22;13304;48.464;8.712;2022-08-18T16:28:41;26.90;56.40
25352;DHT22;13304;48.464;8.712;2022-08-18T16:31:08;26.90;56.60
25352;DHT22;13304;48.464;8.712;2022-08-18T16:33:34;26.80;56.50
25352;DHT22;13304;48.464;8.712;2022-08-18T16:36:05;26.80;56.20
25352;DHT22;13304;48.464;8.712;2022-08-18T16:38:31;26.70;56.30
25352;DHT22;13304;48.464;8.712;2022-08-18T16:41:09;26.70;56.20
25352;DHT22;13304;48.464;8.712;2022-08-18T16:43:36;26.60;56.30
25352;DHT22;13304;48.464;8.712;2022-08-18T16:46:03;26.60;56.40
25352;DHT22;13304;48.464;8.712;2022-08-18T16:48:29;26.60;56.60
25352;DHT22;13304;48.464;8.712;2022-08-18T16:50:55;26.60;56.70
25352;DHT22;13304;48.464;8.712;2022-08-18T16:53:22;26.50;56.80
25352;DHT22;13304;48.464;8.712;2022-08-18T16:55:49;26.50;56.90
25352;DHT22;13304;48.464;8.712;2022-08-18T16:58:18;26.50;57.00
25352;DHT22;13304;48.464;8.712;2022-08-18T17:01:03;26.50;56.90
25352;DHT22;13304;48.464;8.712;2022-08-18T17:03:50;26.40;56.90
25352;DHT22;13304;48.464;8.712;2022-08-18T17:06:32;26.40;56.90
25352;DHT22;13304;48.464;8.712;2022-08-18T17:08:59;26.40;57.10
25352;DHT22;13304;48.464;8.712;2022-08-18T17:11:27;26.40;57.20
25352;DHT22;13304;48.464;8.712;2022-08-18T17:13:58;26.30;57.20
25352;DHT22;13304;48.464;8.712;2022-08-18T17:16:27;26.30;57.20
25352;DHT22;13304;48.464;8.712;2022-08-18T17:18:56;26.30;57.30
25352;DHT22;13304;48.464;8.712;2022-08-18T17:21:27;26.30;57.30
25352;DHT22;13304;48.464;8.712;2022-08-18T17:23:54;26.20;57.30
25352;DHT22;13304;48.464;8.712;2022-08-18T17:29:26;26.10;57.20
25352;DHT22;13304;48.464;8.712;2022-08-18T17:32:05;26.10;57.30
25352;DHT22;13304;48.464;8.712;2022-08-18T17:34:35;26.10;57.20
25352;DHT22;13304;48.464;8.712;2022-08-18T17:37:02;26.10;57.40
25352;DHT22;13304;48.464;8.712;2022-08-18T17:39:33;25.90;57.70
25352;DHT22;13304;48.464;8.712;2022-08-18T17:41:59;26.00;57.50
25352;DHT22;13304;48.464;8.712;2022-08-18T17:44:44;26.00;57.60
25352;DHT22;13304;48.464;8.712;2022-08-18T17:47:17;25.90;57.70
25352;DHT22;13304;48.464;8.712;2022-08-18T17:49:45;25.90;57.70
25352;DHT22;13304;48.464;8.712;2022-08-18T17:52:43;25.80;57.90
25352;DHT22;13304;48.464;8.712;2022-08-18T17:55:23;25.80;58.10
25352;DHT22;13304;48.464;8.712;2022-08-18T17:57:58;25.70;58.10
25352;DHT22;13304;48.464;8.712;2022-08-18T18:00:27;25.70;58.30
25352;DHT22;13304;48.464;8.712;2022-08-18T18:02:55;25.70;58.50
25352;DHT22;13304;48.464;8.712;2022-08-18T18:05:21;25.70;58.70